sensor_id;sensor_type;location;lat;lon;timestamp;P1;durP1;ratioP1;P2;durP2;ratioP2
55288;SDS011;41154;45.394;5.734;2022-08-19T00:00:58;6.80;;;3.92;;
55288;SDS011;41154;45.394;5.734;2022-08-19T00:03:24;7.75;;;4.45;;
55288;SDS011;41154;45.394;5.734;2022-08-19T00:05:49;4.60;;;4.20;;
55288;SDS011;41154;45.394;5.734;2022-08-19T00:08:15;6.72;;;4.50;;
55288;SDS011;41154;45.394;5.734;2022-08-19T00:10:41;5.63;;;4.60;;
55288;SDS011;41154;45.394;5.734;2022-08-19T00:13:07;6.40;;;4.20;;
55288;SDS011;41154;45.394;5.734;2022-08-19T00:15:32;5.75;;;4.05;;
55288;SDS011;41154;45.394;5.734;2022-08-19T00:17:58;5.22;;;4.70;;
55288;SDS011;41154;45.394;5.734;2022-08-19T00:20:24;4.90;;;4.45;;
55288;SDS011;41154;45.394;5.734;2022-08-19T00:22:51;5.97;;;4.55;;
55288;SDS011;41154;45.394;5.734;2022-08-19T00:25:17;4.22;;;3.83;;
55288;SDS011;41154;45.394;5.734;2022-08-19T00:27:43;5.03;;;4.53;;
55288;SDS011;41154;45.394;5.734;2022-08-19T00:30:09;5.10;;;4.60;;
55288;SDS011;41154;45.394;5.734;2022-08-19T00:32:36;6.40;;;5.05;;
55288;SDS011;41154;45.394;5.734;2022-08-19T00:35:02;5.75;;;4.63;;
55288;SDS011;41154;45.394;5.734;2022-08-19T00:37:29;4.95;;;4.43;;
55288;SDS011;41154;45.394;5.734;2022-08-19T00:39:54;4.65;;;4.22;;
55288;SDS011;41154;45.394;5.734;2022-08-19T00:42:21;7.30;;;4.82;;
55288;SDS011;41154;45.394;5.734;2022-08-19T00:44:47;5.43;;;4.70;;
55288;SDS011;41154;45.394;5.734;2022-08-19T00:47:14;7.53;;;5.10;;
55288;SDS011;41154;45.394;5.734;2022-08-19T00:52:15;5.55;;;4.60;;
55288;SDS011;41154;45.394;5.734;2022-08-19T00:54:45;6.75;;;5.15;;
55288;SDS011;41154;45.394;5.734;2022-08-19T00:57:14;5.35;;;4.85;;
55288;SDS011;41154;45.394;5.734;2022-08-19T00:59:42;6.18;;;5.10;;
55288;SDS011;41154;45.394;5.734;2022-08-19T01:02:11;5.85;;;5.07;;
55288;SDS011;41154;45.394;5.734;2022-08-19T01:04:37;5.65;;;4.97;;
55288;SDS011;41154;45.394;5.734;2022-08-19T01:07:03;6.88;;;5.38;;
55288;SDS011;41154;45.394;5.734;2022-08-19T01:09:29;5.97;;;4.80;;
55288;SDS011;41154;45.394;5.734;2022-08-19T01:11:56;6.75;;;5.50;;
55288;SDS011;41154;45.394;5.734;2022-08-19T01:14:37;7.47;;;5.53;;
55288;SDS011;41154;45.394;5.734;2022-08-19T01:17:05;6.40;;;5.13;;
55288;SDS011;41154;45.394;5.734;2022-08-19T01:19:36;5.88;;;5.10;;
55288;SDS011;41154;45.394;5.734;2022-08-19T01:22:11;8.10;;;6.30;;
55288;SDS011;41154;45.394;5.734;2022-08-19T01:24:56;6.05;;;5.45;;
55288;SDS011;41154;45.394;5.734;2022-08-19T01:27:22;6.47;;;5.20;;
55288;SDS011;41154;45.394;5.734;2022-08-19T01:29:48;6.35;;;5.75;;
55288;SDS011;41154;45.394;5.734;2022-08-19T01:32:15;6.90;;;5.68;;
55288;SDS011;41154;45.394;5.734;2022-08-19T01:34:42;7.13;;;5.70;;
55288;SDS011;41154;45.394;5.734;2022-08-19T01:37:12;6.07;;;5.45;;
55288;SDS011;41154;45.394;5.734;2022-08-19T01:39:40;6.80;;;5.57;;
55288;SDS011;41154;45.394;5.734;2022-08-19T01:42:07;7.35;;;5.50;;
55288;SDS011;41154;45.394;5.734;2022-08-19T01:44:38;7.10;;;6.22;;
55288;SDS011;41154;45.394;5.734;2022-08-19T01:47:06;5.07;;;4.57;;
55288;SDS011;41154;45.394;5.734;2022-08-19T01:49:32;5.72;;;4.22;;
55288;SDS011;41154;45.394;5.734;2022-08-19T01:51:58;5.43;;;3.83;;
55288;SDS011;41154;45.394;5.734;2022-08-19T01:54:25;6.78;;;5.20;;
55288;SDS011;41154;45.394;5.734;2022-08-19T01:56:51;5.95;;;5.18;;
55288;SDS011;41154;45.394;5.734;2022-08-19T01:59:21;6.35;;;5.70;;
55288;SDS011;41154;45.394;5.734;2022-08-19T02:01:49;6.45;;;5.45;;
55288;SDS011;41154;45.394;5.734;2022-08-19T02:04:15;6.20;;;4.63;;
55288;SDS011;41154;45.394;5.734;2022-08-19T02:06:41;5.60;;;3.97;;
55288;SDS011;41154;45.394;5.734;2022-08-19T02:09:08;4.03;;;3.40;;
55288;SDS011;41154;45.394;5.734;2022-08-19T02:11:36;5.45;;;4.50;;
55288;SDS011;41154;45.394;5.734;2022-08-19T02:14:04;5.05;;;4.45;;
55288;SDS011;41154;45.394;5.734;2022-08-19T02:16:31;4.25;;;3.85;;
55288;SDS011;41154;45.394;5.734;2022-08-19T02:18:58;5.00;;;4.10;;
55288;SDS011;41154;45.394;5.734;2022-08-19T02:21:25;5.28;;;4.43;;
55288;SDS011;41154;45.394;5.734;2022-08-19T02:23:51;4.10;;;3.70;;
55288;SDS011;41154;45.394;5.734;2022-08-19T02:26:17;4.00;;;3.63;;
55288;SDS011;41154;45.394;5.734;2022-08-19T02:28:44;4.82;;;3.83;;
55288;SDS011;41154;45.394;5.734;2022-08-19T02:31:14;6.72;;;4.60;;
55288;SDS011;41154;45.394;5.734;2022-08-19T02:33:42;7.35;;;4.43;;
55288;SDS011;41154;45.394;5.734;2022-08-19T02:36:10;5.85;;;4.13;;
55288;SDS011;41154;45.394;5.734;2022-08-19T02:38:37;5.30;;;3.72;;
55288;SDS011;41154;45.394;5.734;2022-08-19T02:41:06;5.35;;;3.63;;
55288;SDS011;41154;45.394;5.734;2022-08-19T02:43:36;5.00;;;3.72;;
55288;SDS011;41154;45.394;5.734;2022-08-19T02:46:20;4.57;;;3.50;;
55288;SDS011;41154;45.394;5.734;2022-08-19T02:48:51;4.68;;;3.67;;
55288;SDS011;41154;45.394;5.734;2022-08-19T02:51:26;4.45;;;3.33;;
55288;SDS011;41154;45.394;5.734;2022-08-19T02:53:59;3.92;;;3.20;;
55288;SDS011;41154;45.394;5.734;2022-08-19T02:56:25;5.95;;;2.67;;
55288;SDS011;41154;45.394;5.734;2022-08-19T02:58:53;3.28;;;2.60;;
55288;SDS011;41154;45.394;5.734;2022-08-19T03:01:24;3.15;;;2.58;;
55288;SDS011;41154;45.394;5.734;2022-08-19T03:03:52;2.53;;;2.33;;
55288;SDS011;41154;45.394;5.734;2022-08-19T03:06:18;2.45;;;2.25;;
55288;SDS011;41154;45.394;5.734;2022-08-19T03:08:46;2.70;;;2.40;;
55288;SDS011;41154;45.394;5.734;2022-08-19T03:11:17;2.83;;;2.55;;
55288;SDS011;41154;45.394;5.734;2022-08-19T03:13:45;3.78;;;2.38;;
55288;SDS011;41154;45.394;5.734;2022-08-19T03:16:11;3.55;;;2.30;;
55288;SDS011;41154;45.394;5.734;2022-08-19T03:18:38;2.70;;;2.40;;
55288;SDS011;41154;45.394;5.734;2022-08-19T03:21:04;4.70;;;2.45;;
55288;SDS011;41154;45.394;5.734;2022-08-19T03:23:31;3.72;;;3.10;;
55288;SDS011;41154;45.394;5.734;2022-08-19T03:25:58;3.03;;;2.50;;
55288;SDS011;41154;45.394;5.734;2022-08-19T03:28:24;3.50;;;2.83;;
55288;SDS011;41154;45.394;5.734;2022-08-19T03:30:56;2.97;;;2.60;;
55288;SDS011;41154;45.394;5.734;2022-08-19T03:33:27;3.45;;;2.67;;
55288;SDS011;41154;45.394;5.734;2022-08-19T03:38:26;5.00;;;2.67;;
55288;SDS011;41154;45.394;5.734;2022-08-19T03:40:52;3.60;;;2.47;;
55288;SDS011;41154;45.394;5.734;2022-08-19T03:43:18;5.97;;;2.58;;
55288;SDS011;41154;45.394;5.734;2022-08-19T03:45:44;2.90;;;2.60;;
55288;SDS011;41154;45.394;5.734;2022-08-19T03:48:09;2.70;;;2.30;;
55288;SDS011;41154;45.394;5.734;2022-08-19T03:50:38;4.10;;;2.40;;
55288;SDS011;41154;45.394;5.734;2022-08-19T03:53:05;4.18;;;2.78;;
55288;SDS011;41154;45.394;5.734;2022-08-19T03:55:31;4.18;;;2.63;;
55288;SDS011;41154;45.394;5.734;2022-08-19T03:57:57;2.92;;;2.28;;
55288;SDS011;41154;45.394;5.734;2022-08-19T04:00:23;3.00;;;2.40;;
55288;SDS011;41154;45.394;5.734;2022-08-19T04:02:49;3.88;;;3.30;;
55288;SDS011;41154;45.394;5.734;2022-08-19T04:05:15;4.82;;;2.75;;
55288;SDS011;41154;45.394;5.734;2022-08-19T04:07:41;4.05;;;2.60;;
55288;SDS011;41154;45.394;5.734;2022-08-19T04:10:07;3.00;;;2.28;;
55288;SDS011;41154;45.394;5.734;2022-08-19T04:12:33;3.33;;;2.47;;
55288;SDS011;41154;45.394;5.734;2022-08-19T04:14:58;2.78;;;2.30;;
55288;SDS011;41154;45.394;5.734;2022-08-19T04:17:24;2.92;;;2.60;;
55288;SDS011;41154;45.394;5.734;2022-08-19T04:19:50;3.92;;;2.97;;
55288;SDS011;41154;45.394;5.734;2022-08-19T04:22:16;5.40;;;3.22;;
55288;SDS011;41154;45.394;5.734;2022-08-19T04:24:43;4.03;;;3.13;;
55288;SDS011;41154;45.394;5.734;2022-08-19T04:27:09;3.10;;;2.80;;
55288;SDS011;41154;45.394;5.734;2022-08-19T04:29:35;5.03;;;3.00;;
55288;SDS011;41154;45.394;5.734;2022-08-19T04:32:00;4.25;;;3.10;;
55288;SDS011;41154;45.394;5.734;2022-08-19T04:34:27;3.38;;;2.78;;
55288;SDS011;41154;45.394;5.734;2022-08-19T04:36:55;3.45;;;3.15;;
55288;SDS011;41154;45.394;5.734;2022-08-19T04:39:24;3.97;;;3.45;;
55288;SDS011;41154;45.394;5.734;2022-08-19T04:42:13;5.55;;;3.90;;
55288;SDS011;41154;45.394;5.734;2022-08-19T04:44:58;4.55;;;3.50;;
55288;SDS011;41154;45.394;5.734;2022-08-19T04:47:24;4.88;;;4.13;;
55288;SDS011;41154;45.394;5.734;2022-08-19T04:49:50;3.78;;;3.38;;
55288;SDS011;41154;45.394;5.734;2022-08-19T04:52:16;6.88;;;3.58;;
55288;SDS011;41154;45.394;5.734;2022-08-19T04:54:42;4.93;;;3.45;;
55288;SDS011;41154;45.394;5.734;2022-08-19T04:57:08;4.50;;;3.10;;
55288;SDS011;41154;45.394;5.734;2022-08-19T04:59:35;3.50;;;3.20;;
55288;SDS011;41154;45.394;5.734;2022-08-19T05:02:02;3.22;;;2.80;;
55288;SDS011;41154;45.394;5.734;2022-08-19T05:04:29;6.82;;;3.13;;
55288;SDS011;41154;45.394;5.734;2022-08-19T05:06:56;3.78;;;2.65;;
55288;SDS011;41154;45.394;5.734;2022-08-19T05:09:22;4.57;;;3.03;;
55288;SDS011;41154;45.394;5.734;2022-08-19T05:11:48;4.38;;;2.90;;
55288;SDS011;41154;45.394;5.734;2022-08-19T05:14:16;3.63;;;2.60;;
55288;SDS011;41154;45.394;5.734;2022-08-19T05:16:42;3.33;;;2.88;;
55288;SDS011;41154;45.394;5.734;2022-08-19T05:19:08;4.43;;;2.80;;
55288;SDS011;41154;45.394;5.734;2022-08-19T05:22:02;3.55;;;2.90;;
55288;SDS011;41154;45.394;5.734;2022-08-19T05:24:47;2.95;;;2.65;;
55288;SDS011;41154;45.394;5.734;2022-08-19T05:27:12;2.33;;;2.08;;
55288;SDS011;41154;45.394;5.734;2022-08-19T05:29:38;4.22;;;2.63;;
55288;SDS011;41154;45.394;5.734;2022-08-19T05:32:04;3.83;;;2.55;;
55288;SDS011;41154;45.394;5.734;2022-08-19T05:34:33;3.40;;;2.67;;
55288;SDS011;41154;45.394;5.734;2022-08-19T05:37:00;3.10;;;2.80;;
55288;SDS011;41154;45.394;5.734;2022-08-19T05:39:29;3.20;;;2.75;;
55288;SDS011;41154;45.394;5.734;2022-08-19T05:41:58;6.28;;;3.35;;
55288;SDS011;41154;45.394;5.734;2022-08-19T05:44:26;4.80;;;3.20;;
55288;SDS011;41154;45.394;5.734;2022-08-19T05:46:58;3.78;;;3.38;;
55288;SDS011;41154;45.394;5.734;2022-08-19T05:49:25;4.53;;;3.55;;
55288;SDS011;41154;45.394;5.734;2022-08-19T05:51:53;3.65;;;2.92;;
55288;SDS011;41154;45.394;5.734;2022-08-19T05:54:20;2.55;;;2.20;;
55288;SDS011;41154;45.394;5.734;2022-08-19T05:56:51;4.22;;;3.17;;
55288;SDS011;41154;45.394;5.734;2022-08-19T05:59:18;3.05;;;2.75;;
55288;SDS011;41154;45.394;5.734;2022-08-19T06:01:47;3.33;;;2.92;;
55288;SDS011;41154;45.394;5.734;2022-08-19T06:04:19;3.05;;;2.75;;
55288;SDS011;41154;45.394;5.734;2022-08-19T06:06:46;2.95;;;2.40;;
55288;SDS011;41154;45.394;5.734;2022-08-19T06:09:13;2.13;;;1.92;;
55288;SDS011;41154;45.394;5.734;2022-08-19T06:11:44;2.10;;;1.90;;
55288;SDS011;41154;45.394;5.734;2022-08-19T06:14:13;3.10;;;1.73;;
55288;SDS011;41154;45.394;5.734;2022-08-19T06:16:41;2.83;;;2.08;;
55288;SDS011;41154;45.394;5.734;2022-08-19T06:19:10;1.55;;;1.45;;
55288;SDS011;41154;45.394;5.734;2022-08-19T06:21:39;2.10;;;1.73;;
55288;SDS011;41154;45.394;5.734;2022-08-19T06:24:06;2.78;;;1.80;;
55288;SDS011;41154;45.394;5.734;2022-08-19T06:26:35;3.10;;;1.95;;
55288;SDS011;41154;45.394;5.734;2022-08-19T06:29:03;1.73;;;1.55;;
55288;SDS011;41154;45.394;5.734;2022-08-19T06:31:32;2.05;;;1.40;;
55288;SDS011;41154;45.394;5.734;2022-08-19T06:34:00;2.58;;;1.73;;
55288;SDS011;41154;45.394;5.734;2022-08-19T06:36:38;2.20;;;2.00;;
55288;SDS011;41154;45.394;5.734;2022-08-19T06:39:12;2.50;;;1.90;;
55288;SDS011;41154;45.394;5.734;2022-08-19T06:41:45;2.20;;;1.95;;
55288;SDS011;41154;45.394;5.734;2022-08-19T06:44:16;2.80;;;2.00;;
55288;SDS011;41154;45.394;5.734;2022-08-19T06:46:43;2.28;;;2.03;;
55288;SDS011;41154;45.394;5.734;2022-08-19T06:49:09;2.90;;;2.03;;
55288;SDS011;41154;45.394;5.734;2022-08-19T06:51:40;4.38;;;1.90;;
55288;SDS011;41154;45.394;5.734;2022-08-19T06:54:08;2.70;;;2.03;;
55288;SDS011;41154;45.394;5.734;2022-08-19T06:56:35;2.28;;;2.00;;
55288;SDS011;41154;45.394;5.734;2022-08-19T06:59:35;2.15;;;1.92;;
55288;SDS011;41154;45.394;5.734;2022-08-19T07:01:58;2.13;;;1.90;;
55288;SDS011;41154;45.394;5.734;2022-08-19T07:04:27;2.05;;;1.85;;
55288;SDS011;41154;45.394;5.734;2022-08-19T07:06:59;2.08;;;1.80;;
55288;SDS011;41154;45.394;5.734;2022-08-19T07:09:38;2.38;;;1.92;;
55288;SDS011;41154;45.394;5.734;2022-08-19T07:12:06;2.13;;;1.88;;
55288;SDS011;41154;45.394;5.734;2022-08-19T07:14:34;2.63;;;1.90;;
55288;SDS011;41154;45.394;5.734;2022-08-19T07:17:03;2.13;;;1.92;;
55288;SDS011;41154;45.394;5.734;2022-08-19T07:19:31;2.30;;;2.00;;
55288;SDS011;41154;45.394;5.734;2022-08-19T07:21:58;2.70;;;1.90;;
55288;SDS011;41154;45.394;5.734;2022-08-19T07:24:27;1.95;;;1.70;;
55288;SDS011;41154;45.394;5.734;2022-08-19T07:26:54;1.90;;;1.80;;
55288;SDS011;41154;45.394;5.734;2022-08-19T07:29:31;1.75;;;1.58;;
55288;SDS011;41154;45.394;5.734;2022-08-19T07:31:59;2.75;;;1.70;;
55288;SDS011;41154;45.394;5.734;2022-08-19T07:34:26;2.00;;;1.80;;
55288;SDS011;41154;45.394;5.734;2022-08-19T07:36:53;2.28;;;1.80;;
55288;SDS011;41154;45.394;5.734;2022-08-19T07:39:23;1.88;;;1.70;;
55288;SDS011;41154;45.394;5.734;2022-08-19T07:41:50;2.15;;;1.60;;
55288;SDS011;41154;45.394;5.734;2022-08-19T07:44:17;1.58;;;1.48;;
55288;SDS011;41154;45.394;5.734;2022-08-19T07:46:46;1.92;;;1.75;;
55288;SDS011;41154;45.394;5.734;2022-08-19T07:49:14;1.90;;;1.80;;
55288;SDS011;41154;45.394;5.734;2022-08-19T07:51:52;4.45;;;1.88;;
55288;SDS011;41154;45.394;5.734;2022-08-19T07:54:22;1.73;;;1.63;;
55288;SDS011;41154;45.394;5.734;2022-08-19T07:56:48;1.83;;;1.73;;
55288;SDS011;41154;45.394;5.734;2022-08-19T07:59:16;2.13;;;1.92;;
55288;SDS011;41154;45.394;5.734;2022-08-19T08:01:43;2.72;;;1.90;;
55288;SDS011;41154;45.394;5.734;2022-08-19T08:04:09;1.85;;;1.75;;
55288;SDS011;41154;45.394;5.734;2022-08-19T08:06:54;1.70;;;1.60;;
55288;SDS011;41154;45.394;5.734;2022-08-19T08:09:39;1.90;;;1.77;;
55288;SDS011;41154;45.394;5.734;2022-08-19T08:12:09;1.98;;;1.70;;
55288;SDS011;41154;45.394;5.734;2022-08-19T08:14:45;1.60;;;1.50;;
55288;SDS011;41154;45.394;5.734;2022-08-19T08:17:15;2.05;;;1.60;;
55288;SDS011;41154;45.394;5.734;2022-08-19T08:19:43;1.92;;;1.73;;
55288;SDS011;41154;45.394;5.734;2022-08-19T08:22:10;1.75;;;1.58;;
55288;SDS011;41154;45.394;5.734;2022-08-19T08:27:36;2.30;;;2.10;;
55288;SDS011;41154;45.394;5.734;2022-08-19T08:30:08;2.78;;;1.83;;
55288;SDS011;41154;45.394;5.734;2022-08-19T08:32:39;2.45;;;2.25;;
55288;SDS011;41154;45.394;5.734;2022-08-19T08:35:07;3.47;;;2.17;;
55288;SDS011;41154;45.394;5.734;2022-08-19T08:37:36;3.05;;;2.22;;
55288;SDS011;41154;45.394;5.734;2022-08-19T08:40:03;2.22;;;2.03;;
55288;SDS011;41154;45.394;5.734;2022-08-19T08:42:34;3.45;;;2.33;;
55288;SDS011;41154;45.394;5.734;2022-08-19T08:45:05;2.55;;;2.35;;
55288;SDS011;41154;45.394;5.734;2022-08-19T08:47:42;3.50;;;2.53;;
55288;SDS011;41154;45.394;5.734;2022-08-19T08:50:19;3.35;;;2.20;;
55288;SDS011;41154;45.394;5.734;2022-08-19T08:52:52;3.72;;;2.30;;
55288;SDS011;41154;45.394;5.734;2022-08-19T08:55:22;2.33;;;2.13;;
55288;SDS011;41154;45.394;5.734;2022-08-19T09:02:57;3.60;;;3.30;;
55288;SDS011;41154;45.394;5.734;2022-08-19T09:05:34;4.30;;;3.35;;
55288;SDS011;41154;45.394;5.734;2022-08-19T09:10:54;6.68;;;4.07;;
55288;SDS011;41154;45.394;5.734;2022-08-19T09:16:07;4.35;;;3.80;;
55288;SDS011;41154;45.394;5.734;2022-08-19T09:18:42;4.40;;;4.00;;
55288;SDS011;41154;45.394;5.734;2022-08-19T09:21:13;4.10;;;3.70;;
55288;SDS011;41154;45.394;5.734;2022-08-19T09:23:39;4.40;;;3.97;;
55288;SDS011;41154;45.394;5.734;2022-08-19T09:26:06;4.10;;;3.70;;
55288;SDS011;41154;45.394;5.734;2022-08-19T09:28:34;3.53;;;3.03;;
55288;SDS011;41154;45.394;5.734;2022-08-19T09:31:00;3.28;;;2.88;;
55288;SDS011;41154;45.394;5.734;2022-08-19T09:33:26;5.07;;;3.75;;
55288;SDS011;41154;45.394;5.734;2022-08-19T09:36:00;3.58;;;3.17;;
55288;SDS011;41154;45.394;5.734;2022-08-19T09:38:31;4.07;;;3.40;;
55288;SDS011;41154;45.394;5.734;2022-08-19T09:41:01;3.80;;;3.33;;
55288;SDS011;41154;45.394;5.734;2022-08-19T09:43:31;3.50;;;3.20;;
55288;SDS011;41154;45.394;5.734;2022-08-19T09:46:04;4.57;;;3.47;;
55288;SDS011;41154;45.394;5.734;2022-08-19T09:48:32;4.22;;;3.70;;
55288;SDS011;41154;45.394;5.734;2022-08-19T09:51:02;3.67;;;3.33;;
55288;SDS011;41154;45.394;5.734;2022-08-19T09:53:41;4.63;;;3.97;;
55288;SDS011;41154;45.394;5.734;2022-08-19T09:56:11;4.57;;;4.00;;
55288;SDS011;41154;45.394;5.734;2022-08-19T09:58:38;7.97;;;4.57;;
55288;SDS011;41154;45.394;5.734;2022-08-19T10:01:06;7.50;;;4.30;;
55288;SDS011;41154;45.394;5.734;2022-08-19T10:03:33;5.30;;;4.53;;
55288;SDS011;41154;45.394;5.734;2022-08-19T10:06:02;4.70;;;4.05;;
55288;SDS011;41154;45.394;5.734;2022-08-19T10:08:31;6.18;;;4.50;;
55288;SDS011;41154;45.394;5.734;2022-08-19T10:11:00;6.43;;;4.68;;
55288;SDS011;41154;45.394;5.734;2022-08-19T10:13:28;6.78;;;4.80;;
55288;SDS011;41154;45.394;5.734;2022-08-19T10:15:56;6.22;;;4.93;;
55288;SDS011;41154;45.394;5.734;2022-08-19T10:18:29;5.90;;;4.82;;
55288;SDS011;41154;45.394;5.734;2022-08-19T10:21:02;6.68;;;5.05;;
55288;SDS011;41154;45.394;5.734;2022-08-19T10:23:30;8.90;;;6.15;;
55288;SDS011;41154;45.394;5.734;2022-08-19T10:25:59;7.60;;;5.75;;
55288;SDS011;41154;45.394;5.734;2022-08-19T10:28:25;9.77;;;6.38;;
55288;SDS011;41154;45.394;5.734;2022-08-19T10:30:50;11.23;;;6.82;;
55288;SDS011;41154;45.394;5.734;2022-08-19T10:33:16;12.65;;;7.45;;
55288;SDS011;41154;45.394;5.734;2022-08-19T10:35:42;12.77;;;7.75;;
55288;SDS011;41154;45.394;5.734;2022-08-19T10:38:08;12.43;;;6.78;;
55288;SDS011;41154;45.394;5.734;2022-08-19T10:40:33;16.13;;;7.78;;
55288;SDS011;41154;45.394;5.734;2022-08-19T10:43:00;11.70;;;7.90;;
55288;SDS011;41154;45.394;5.734;2022-08-19T10:45:25;12.18;;;7.25;;
55288;SDS011;41154;45.394;5.734;2022-08-19T10:47:54;11.82;;;7.35;;
55288;SDS011;41154;45.394;5.734;2022-08-19T10:50:20;12.27;;;7.65;;
55288;SDS011;41154;45.394;5.734;2022-08-19T10:53:05;11.30;;;7.15;;
55288;SDS011;41154;45.394;5.734;2022-08-19T10:55:35;12.57;;;7.90;;
55288;SDS011;41154;45.394;5.734;2022-08-19T10:58:23;11.02;;;7.15;;
55288;SDS011;41154;45.394;5.734;2022-08-19T11:00:51;10.52;;;6.78;;
55288;SDS011;41154;45.394;5.734;2022-08-19T11:03:18;11.55;;;7.13;;
55288;SDS011;41154;45.394;5.734;2022-08-19T11:05:44;9.40;;;6.82;;
55288;SDS011;41154;45.394;5.734;2022-08-19T11:08:10;10.05;;;6.85;;
55288;SDS011;41154;45.394;5.734;2022-08-19T11:10:40;10.15;;;6.63;;
55288;SDS011;41154;45.394;5.734;2022-08-19T11:13:07;9.48;;;6.72;;
55288;SDS011;41154;45.394;5.734;2022-08-19T11:15:33;9.45;;;6.47;;
55288;SDS011;41154;45.394;5.734;2022-08-19T11:17:59;8.20;;;5.78;;
55288;SDS011;41154;45.394;5.734;2022-08-19T11:20:25;7.93;;;5.70;;
55288;SDS011;41154;45.394;5.734;2022-08-19T11:22:51;7.55;;;5.90;;
55288;SDS011;41154;45.394;5.734;2022-08-19T11:25:18;7.00;;;5.38;;
55288;SDS011;41154;45.394;5.734;2022-08-19T11:27:44;6.15;;;4.97;;
55288;SDS011;41154;45.394;5.734;2022-08-19T11:30:11;6.90;;;5.07;;
55288;SDS011;41154;45.394;5.734;2022-08-19T11:32:39;5.75;;;5.07;;
55288;SDS011;41154;45.394;5.734;2022-08-19T11:35:05;6.00;;;4.90;;
55288;SDS011;41154;45.394;5.734;2022-08-19T11:37:31;6.47;;;4.97;;
55288;SDS011;41154;45.394;5.734;2022-08-19T11:40:03;10.15;;;4.65;;
55288;SDS011;41154;45.394;5.734;2022-08-19T11:42:30;4.95;;;4.40;;
55288;SDS011;41154;45.394;5.734;2022-08-19T11:45:14;6.55;;;4.57;;
55288;SDS011;41154;45.394;5.734;2022-08-19T11:47:40;5.80;;;4.68;;
55288;SDS011;41154;45.394;5.734;2022-08-19T11:50:06;5.20;;;4.70;;
55288;SDS011;41154;45.394;5.734;2022-08-19T11:52:32;4.30;;;3.90;;
55288;SDS011;41154;45.394;5.734;2022-08-19T11:54:58;4.97;;;4.47;;
55288;SDS011;41154;45.394;5.734;2022-08-19T11:57:24;5.25;;;4.60;;
55288;SDS011;41154;45.394;5.734;2022-08-19T11:59:50;4.63;;;4.22;;
55288;SDS011;41154;45.394;5.734;2022-08-19T12:02:17;4.43;;;4.03;;
55288;SDS011;41154;45.394;5.734;2022-08-19T12:04:44;8.23;;;4.10;;
55288;SDS011;41154;45.394;5.734;2022-08-19T12:07:10;5.10;;;3.70;;
55288;SDS011;41154;45.394;5.734;2022-08-19T12:09:36;4.28;;;3.88;;
55288;SDS011;41154;45.394;5.734;2022-08-19T12:12:04;4.38;;;3.60;;
55288;SDS011;41154;45.394;5.734;2022-08-19T12:14:30;3.90;;;3.50;;
55288;SDS011;41154;45.394;5.734;2022-08-19T12:16:57;4.70;;;3.80;;
55288;SDS011;41154;45.394;5.734;2022-08-19T12:19:23;4.65;;;3.90;;
55288;SDS011;41154;45.394;5.734;2022-08-19T12:21:50;4.97;;;3.80;;
55288;SDS011;41154;45.394;5.734;2022-08-19T12:24:18;4.50;;;4.10;;
55288;SDS011;41154;45.394;5.734;2022-08-19T12:26:48;5.63;;;4.30;;
55288;SDS011;41154;45.394;5.734;2022-08-19T12:29:14;6.57;;;4.28;;
55288;SDS011;41154;45.394;5.734;2022-08-19T12:31:40;8.95;;;5.32;;
55288;SDS011;41154;45.394;5.734;2022-08-19T12:34:06;5.80;;;4.88;;
55288;SDS011;41154;45.394;5.734;2022-08-19T12:36:32;5.28;;;4.10;;
55288;SDS011;41154;45.394;5.734;2022-08-19T12:38:58;6.15;;;5.38;;
55288;SDS011;41154;45.394;5.734;2022-08-19T12:41:25;6.22;;;5.05;;
55288;SDS011;41154;45.394;5.734;2022-08-19T12:43:51;9.10;;;6.47;;
55288;SDS011;41154;45.394;5.734;2022-08-19T12:46:17;7.95;;;7.03;;
55288;SDS011;41154;45.394;5.734;2022-08-19T12:48:44;9.95;;;8.07;;
55288;SDS011;41154;45.394;5.734;2022-08-19T12:51:12;11.60;;;8.35;;
55288;SDS011;41154;45.394;5.734;2022-08-19T12:53:41;9.23;;;7.22;;
55288;SDS011;41154;45.394;5.734;2022-08-19T12:56:08;8.13;;;7.05;;
55288;SDS011;41154;45.394;5.734;2022-08-19T12:58:36;8.43;;;7.38;;
55288;SDS011;41154;45.394;5.734;2022-08-19T13:01:09;12.60;;;9.48;;
55288;SDS011;41154;45.394;5.734;2022-08-19T13:03:36;14.82;;;10.10;;
55288;SDS011;41154;45.394;5.734;2022-08-19T13:06:02;16.98;;;11.70;;
55288;SDS011;41154;45.394;5.734;2022-08-19T13:08:28;17.92;;;12.20;;
55288;SDS011;41154;45.394;5.734;2022-08-19T13:10:54;17.40;;;11.98;;
55288;SDS011;41154;45.394;5.734;2022-08-19T13:13:21;15.02;;;10.98;;
55288;SDS011;41154;45.394;5.734;2022-08-19T13:15:47;14.15;;;11.23;;
55288;SDS011;41154;45.394;5.734;2022-08-19T13:18:13;15.38;;;10.77;;
55288;SDS011;41154;45.394;5.734;2022-08-19T13:20:39;14.73;;;10.88;;
55288;SDS011;41154;45.394;5.734;2022-08-19T13:23:06;15.00;;;11.02;;
55288;SDS011;41154;45.394;5.734;2022-08-19T13:25:32;14.38;;;10.90;;
55288;SDS011;41154;45.394;5.734;2022-08-19T13:27:58;14.82;;;11.00;;
55288;SDS011;41154;45.394;5.734;2022-08-19T13:30:25;16.05;;;10.90;;
55288;SDS011;41154;45.394;5.734;2022-08-19T13:33:09;16.15;;;12.27;;
55288;SDS011;41154;45.394;5.734;2022-08-19T13:35:46;13.30;;;10.68;;
55288;SDS011;41154;45.394;5.734;2022-08-19T13:38:18;14.85;;;11.40;;
55288;SDS011;41154;45.394;5.734;2022-08-19T13:40:45;19.30;;;10.70;;
55288;SDS011;41154;45.394;5.734;2022-08-19T13:43:12;14.05;;;10.55;;
55288;SDS011;41154;45.394;5.734;2022-08-19T13:45:39;18.27;;;10.93;;
55288;SDS011;41154;45.394;5.734;2022-08-19T13:48:06;14.50;;;9.98;;
55288;SDS011;41154;45.394;5.734;2022-08-19T13:50:35;13.98;;;9.73;;
55288;SDS011;41154;45.394;5.734;2022-08-19T13:53:07;14.88;;;10.57;;
55288;SDS011;41154;45.394;5.734;2022-08-19T13:55:34;14.75;;;9.50;;
55288;SDS011;41154;45.394;5.734;2022-08-19T13:58:02;12.35;;;9.82;;
55288;SDS011;41154;45.394;5.734;2022-08-19T14:00:29;14.50;;;10.38;;
55288;SDS011;41154;45.394;5.734;2022-08-19T14:02:58;15.73;;;10.30;;
55288;SDS011;41154;45.394;5.734;2022-08-19T14:05:28;14.85;;;11.07;;
55288;SDS011;41154;45.394;5.734;2022-08-19T14:07:55;14.38;;;11.00;;
55288;SDS011;41154;45.394;5.734;2022-08-19T14:10:22;13.60;;;10.40;;
55288;SDS011;41154;45.394;5.734;2022-08-19T14:12:49;15.18;;;11.52;;
55288;SDS011;41154;45.394;5.734;2022-08-19T14:15:18;14.35;;;10.38;;
55288;SDS011;41154;45.394;5.734;2022-08-19T14:17:44;13.32;;;10.88;;
55288;SDS011;41154;45.394;5.734;2022-08-19T14:20:13;13.32;;;10.60;;
55288;SDS011;41154;45.394;5.734;2022-08-19T14:22:40;12.27;;;10.35;;
55288;SDS011;41154;45.394;5.734;2022-08-19T14:25:08;14.75;;;11.35;;
55288;SDS011;41154;45.394;5.734;2022-08-19T14:27:37;14.32;;;10.13;;
55288;SDS011;41154;45.394;5.734;2022-08-19T14:30:06;12.73;;;9.70;;
55288;SDS011;41154;45.394;5.734;2022-08-19T14:32:34;13.60;;;10.00;;
55288;SDS011;41154;45.394;5.734;2022-08-19T14:35:00;15.43;;;10.50;;
55288;SDS011;41154;45.394;5.734;2022-08-19T14:37:29;13.32;;;9.80;;
55288;SDS011;41154;45.394;5.734;2022-08-19T14:39:55;13.55;;;10.00;;
55288;SDS011;41154;45.394;5.734;2022-08-19T14:42:21;17.83;;;10.40;;
55288;SDS011;41154;45.394;5.734;2022-08-19T14:44:47;14.68;;;10.93;;
55288;SDS011;41154;45.394;5.734;2022-08-19T14:47:13;18.15;;;10.80;;
55288;SDS011;41154;45.394;5.734;2022-08-19T14:49:39;13.55;;;10.48;;
55288;SDS011;41154;45.394;5.734;2022-08-19T14:52:05;13.85;;;10.25;;
55288;SDS011;41154;45.394;5.734;2022-08-19T14:54:31;14.70;;;9.77;;
55288;SDS011;41154;45.394;5.734;2022-08-19T14:56:57;12.23;;;9.65;;
55288;SDS011;41154;45.394;5.734;2022-08-19T14:59:23;13.75;;;10.02;;
55288;SDS011;41154;45.394;5.734;2022-08-19T15:01:49;12.30;;;9.30;;
55288;SDS011;41154;45.394;5.734;2022-08-19T15:04:15;13.27;;;10.27;;
55288;SDS011;41154;45.394;5.734;2022-08-19T15:06:46;19.30;;;10.60;;
55288;SDS011;41154;45.394;5.734;2022-08-19T15:09:11;17.10;;;10.15;;